Time;durP1;ratioP1;P1;durP2;ratioP2;P2;SDS_P1;SDS_P2;PMS_P1;PMS_P2;Temp;Humidity;BMP_temperature;BMP_pressure;BME280_temperature;BME280_humidity;BME280_pressure;Samples;Min_cycle;Max_cycle;Signal;HPM_P1;HPM_P2
2022/11/28 00:02:14;;;;;;;6.47;2.95;;;8.20;99.90;;;8.00;100.00;100691.56;5224059;28;20386;-70
2022/11/28 00:04:52;;;;;;;7.38;3.42;;;8.20;99.90;;;8.01;100.00;100695.06;5225293;28;20045;-70
2022/11/28 00:07:24;;;;;;;6.65;3.17;;;8.20;99.90;;;7.99;100.00;100699.31;5226016;28;20049;-70
2022/11/28 00:09:56;;;;;;;7.35;3.60;;;8.20;99.90;;;7.97;100.00;100687.97;5212287;28;20517;-70
2022/11/28 00:12:30;;;;;;;6.72;3.10;;;8.10;99.90;;;7.94;100.00;100687.81;5215693;28;20041;-69
2022/11/28 00:15:04;;;;;;;7.40;3.30;;;8.10;99.90;;;7.89;100.00;100688.53;5215868;28;20044;-70
2022/11/28 00:17:36;;;;;;;7.60;3.50;;;8.10;99.90;;;7.83;100.00;100677.00;5225725;28;20508;-70
2022/11/28 00:20:09;;;;;;;7.85;4.00;;;8.00;99.90;;;7.74;100.00;100669.66;5225724;28;20045;-70
2022/11/28 00:22:41;;;;;;;10.90;4.10;;;8.00;99.90;;;7.69;100.00;100671.16;5225845;28;20494;-70
2022/11/28 00:25:14;;;;;;;7.15;3.60;;;8.00;99.90;;;7.66;100.00;100660.66;5225951;28;20041;-70
2022/11/28 00:27:46;;;;;;;7.70;3.47;;;7.90;99.90;;;7.61;100.00;100660.47;5225693;28;20041;-70
2022/11/28 00:30:20;;;;;;;8.80;3.60;;;7.90;99.90;;;7.58;100.00;100659.44;5225757;28;20041;-70
2022/11/28 00:32:52;;;;;;;7.25;3.53;;;7.80;99.90;;;7.54;100.00;100665.31;5216167;28;20056;-70
2022/11/28 00:35:25;;;;;;;7.70;4.00;;;7.80;99.90;;;7.47;100.00;100658.06;5226059;28;20041;-70
2022/11/28 00:37:57;;;;;;;9.35;4.05;;;7.80;99.90;;;7.40;100.00;100651.72;5225229;28;20037;-70
2022/11/28 00:40:30;;;;;;;7.35;3.53;;;7.70;99.90;;;7.38;100.00;100652.47;5224373;28;20055;-70
2022/11/28 00:43:02;;;;;;;6.97;3.72;;;7.70;99.90;;;7.35;100.00;100651.50;5225943;28;20052;-70
2022/11/28 00:45:37;;;;;;;10.15;4.18;;;7.70;99.90;;;7.33;100.00;100647.97;5222166;28;20048;-70
2022/11/28 00:48:09;;;;;;;10.30;3.88;;;7.60;99.90;;;7.34;100.00;100656.63;5225407;28;20041;-70
2022/11/28 00:50:43;;;;;;;8.02;3.83;;;7.60;99.90;;;7.33;100.00;100655.75;5225157;28;20056;-70
2022/11/28 00:53:15;;;;;;;6.22;3.58;;;7.60;99.90;;;7.34;100.00;100647.16;5224838;28;20059;-70
2022/11/28 00:55:48;;;;;;;8.50;3.80;;;7.60;99.90;;;7.32;100.00;100627.16;5225347;28;20049;-70
2022/11/28 00:58:20;;;;;;;7.95;4.15;;;7.60;99.90;;;7.31;100.00;100631.47;5225232;28;20051;-70
2022/11/28 01:00:56;;;;;;;7.57;3.90;;;7.60;99.90;;;7.30;100.00;100640.06;5224813;28;20051;-70
2022/11/28 01:03:28;;;;;;;7.55;3.90;;;7.60;99.90;;;7.33;100.00;100628.94;5224885;28;20045;-70
2022/11/28 01:06:05;;;;;;;7.63;3.63;;;7.60;99.90;;;7.33;100.00;100624.63;5224958;28;20052;-70
2022/11/28 01:08:38;;;;;;;8.30;3.80;;;7.60;99.90;;;7.32;100.00;100622.84;5224322;28;20033;-70
2022/11/28 01:11:13;;;;;;;10.18;4.10;;;7.60;99.90;;;7.31;100.00;100615.91;5224873;28;20043;-70
2022/11/28 01:13:45;;;;;;;7.90;4.00;;;7.60;99.90;;;7.31;100.00;100613.31;5223618;28;20048;-70
2022/11/28 01:16:20;;;;;;;7.93;3.90;;;7.60;99.90;;;7.30;100.00;100603.75;5210230;28;20045;-70
2022/11/28 01:18:52;;;;;;;8.82;3.92;;;7.60;99.90;;;7.34;100.00;100604.78;5224199;28;20044;-70
2022/11/28 01:21:25;;;;;;;8.43;4.10;;;7.60;99.90;;;7.31;100.00;100602.94;5206249;28;20091;-70
2022/11/28 01:23:57;;;;;;;10.05;4.00;;;7.60;99.90;;;7.33;100.00;100613.38;5184319;28;20050;-70
2022/11/28 01:26:30;;;;;;;7.38;3.78;;;7.60;99.90;;;7.35;100.00;100615.19;5184204;28;20096;-70
2022/11/28 01:29:03;;;;;;;6.28;2.85;;;7.60;99.90;;;7.42;100.00;100628.44;5184383;28;20049;-70
2022/11/28 01:31:37;;;;;;;8.60;3.20;;;7.60;99.90;;;7.47;100.00;100626.94;5184214;28;20415;-70
2022/11/28 01:34:09;;;;;;;6.45;3.00;;;7.70;99.90;;;7.50;100.00;100620.22;5184863;28;20385;-70
2022/11/28 01:36:42;;;;;;;8.20;3.72;;;7.70;99.90;;;7.52;100.00;100617.69;5184278;28;20506;-70
2022/11/28 01:39:15;;;;;;;7.07;3.50;;;7.70;99.90;;;7.53;100.00;100616.84;5184047;28;20037;-70
2022/11/28 01:41:47;;;;;;;9.60;4.10;;;7.70;99.90;;;7.46;100.00;100604.44;5184438;28;20037;-70
2022/11/28 01:45:07;;;;;;;8.60;3.85;;;7.70;99.90;;;7.38;100.00;100585.06;5184227;28;20050;-69
2022/11/28 01:47:42;;;;;;;8.82;4.18;;;7.60;99.90;;;7.33;100.00;100590.91;5187602;28;20056;-70
2022/11/28 01:50:15;;;;;;;8.93;4.60;;;7.60;99.90;;;7.32;100.00;100601.22;5188270;28;20038;-70
2022/11/28 01:52:55;;;;;;;10.13;4.53;;;7.60;99.90;;;7.26;100.00;100583.69;5188333;28;20038;-70
2022/11/28 01:55:32;;;;;;;8.57;3.97;;;7.50;99.90;;;7.23;100.00;100575.75;5188359;28;20053;-70
2022/11/28 01:58:06;;;;;;;12.15;4.80;;;7.50;99.90;;;7.19;100.00;100563.50;5188632;28;20438;-70
2022/11/28 02:00:38;;;;;;;8.35;3.78;;;7.50;99.90;;;7.20;100.00;100559.19;5187969;28;20120;-70
2022/11/28 02:03:17;;;;;;;9.95;4.50;;;7.50;99.90;;;7.20;100.00;100549.72;5188288;28;20048;-70
2022/11/28 02:05:51;;;;;;;9.32;4.53;;;7.50;99.90;;;7.20;100.00;100554.00;5187991;28;20049;-70
2022/11/28 02:08:24;;;;;;;9.18;4.30;;;7.50;99.90;;;7.15;100.00;100553.78;5188195;28;20065;-70
2022/11/28 02:11:36;;;;;;;8.65;4.35;;;7.40;99.90;;;7.12;100.00;100551.09;5187960;28;20042;-70
2022/11/28 02:14:21;;;;;;;9.82;4.22;;;7.40;99.90;;;7.14;100.00;100543.38;5187718;28;20050;-70
2022/11/28 02:17:07;;;;;;;8.70;4.32;;;7.40;99.90;;;7.17;100.00;100522.75;5186210;28;20064;-70
2022/11/28 02:20:46;;;;;;;11.63;4.28;;;7.40;99.90;;;7.16;100.00;100526.16;5186493;28;20414;-70
2022/11/28 02:23:23;;;;;;;;;;;7.40;99.90;;;7.17;100.00;100523.66;5176779;28;20072;-70
2022/11/28 02:26:34;;;;;;;7.88;3.92;;;7.40;99.90;;;7.22;100.00;100532.50;5186365;28;19921;-71
2022/11/28 02:29:31;;;;;;;8.55;4.03;;;7.40;99.90;;;7.21;100.00;100530.75;5187663;28;20052;-70
2022/11/28 02:32:15;;;;;;;7.43;3.88;;;7.50;99.90;;;7.25;100.00;100542.16;5185584;28;20506;-70
2022/11/28 02:34:56;;;;;;;9.05;4.28;;;7.40;99.90;;;7.19;100.00;100537.56;5187287;28;20061;-70
2022/11/28 02:37:37;;;;;;;10.20;4.70;;;7.50;99.90;;;7.20;100.00;100544.53;5186601;28;20469;-71
2022/11/28 02:40:18;;;;;;;8.25;4.35;;;7.40;99.90;;;7.20;100.00;100539.34;5185704;28;20455;-70
2022/11/28 02:43:02;;;;;;;7.15;3.70;;;7.40;99.90;;;7.21;100.00;100530.75;5185324;28;20054;-70
2022/11/28 02:45:41;;;;;;;8.52;4.25;;;7.50;99.90;;;7.22;100.00;100545.47;5187500;28;20133;-70
2022/11/28 02:48:24;;;;;;;9.55;4.32;;;7.40;99.90;;;7.27;100.00;100550.88;5186544;28;20045;-70
2022/11/28 02:51:03;;;;;;;8.57;4.30;;;7.50;99.90;;;7.29;100.00;100544.91;5186961;28;20522;-70
2022/11/28 02:53:37;;;;;;;8.32;4.03;;;7.50;99.90;;;7.34;100.00;100532.16;5186553;28;20041;-70
2022/11/28 02:56:11;;;;;;;8.60;3.72;;;7.50;99.90;;;7.37;100.00;100531.41;5185366;28;20507;-70
2022/11/28 02:58:44;;;;;;;8.07;4.15;;;7.60;99.90;;;7.35;100.00;100534.81;5185177;28;20062;-70
2022/11/28 03:01:21;;;;;;;9.27;3.83;;;7.60;99.90;;;7.38;100.00;100531.50;5186534;28;20045;-71
2022/11/28 03:04:19;;;;;;;7.03;3.88;;;7.60;99.90;;;7.40;100.00;100539.31;5186533;28;20054;-70
2022/11/28 03:07:03;;;;;;;10.18;4.50;;;7.60;99.90;;;7.37;100.00;100541.78;5186480;28;20124;-70
2022/11/28 03:10:09;;;;;;;9.32;3.90;;;7.60;99.90;;;7.35;100.00;100540.00;5184733;28;20042;-70
2022/11/28 03:12:57;;;;;;;9.65;4.15;;;7.60;99.90;;;7.35;100.00;100544.31;5186370;28;20050;-70
2022/11/28 03:15:39;;;;;;;11.05;4.57;;;7.60;99.90;;;7.35;100.00;100540.00;5186369;28;20045;-71
2022/11/28 03:18:17;;;;;;;9.00;4.10;;;7.60;99.90;;;7.34;100.00;100543.41;5186124;28;20038;-71
2022/11/28 03:20:55;;;;;;;9.82;4.93;;;7.60;99.90;;;7.32;100.00;100539.88;5186368;28;20121;-70
2022/11/28 03:23:37;;;;;;;8.68;4.50;;;7.60;99.90;;;7.28;100.00;100532.78;5186452;28;20045;-70
2022/11/28 03:26:18;;;;;;;8.38;4.15;;;7.50;99.90;;;7.30;100.00;100523.38;5186617;28;20052;-70
2022/11/28 03:29:00;;;;;;;10.30;4.50;;;7.50;99.90;;;7.25;100.00;100509.31;5186042;28;20049;-71
2022/11/28 03:31:38;;;;;;;8.85;4.65;;;7.50;99.90;;;7.22;100.00;100506.59;5186245;28;20053;-70
2022/11/28 03:34:19;;;;;;;8.27;3.83;;;7.50;99.90;;;7.22;100.00;100516.94;5185866;28;20072;-70
2022/11/28 03:37:00;;;;;;;7.60;4.00;;;7.50;99.90;;;7.23;100.00;100513.53;5186077;28;20052;-70
2022/11/28 03:39:37;;;;;;;8.00;4.18;;;7.50;99.90;;;7.22;100.00;100505.69;5185580;28;20034;-70
2022/11/28 03:42:13;;;;;;;10.02;4.32;;;7.40;99.90;;;7.23;100.00;100518.72;5185914;28;20038;-70
2022/11/28 03:44:50;;;;;;;7.40;4.15;;;7.50;99.90;;;7.23;100.00;100508.34;5186050;28;20050;-70
2022/11/28 03:47:28;;;;;;;7.57;3.65;;;7.40;99.90;;;7.24;100.00;100494.59;5185599;28;20046;-70
2022/11/28 03:50:06;;;;;;;11.50;4.78;;;7.40;99.90;;;7.16;100.00;100485.56;5184138;28;20082;-71
2022/11/28 03:52:45;;;;;;;9.40;4.72;;;7.40;99.90;;;7.13;100.00;100479.38;5185534;28;20057;-71
2022/11/28 03:55:22;;;;;;;8.38;4.25;;;7.40;99.90;;;7.08;100.00;100497.31;5185611;28;20045;-71
2022/11/28 03:58:00;;;;;;;11.40;4.85;;;7.40;99.90;;;7.03;100.00;100501.41;5185633;28;20054;-70
2022/11/28 04:00:38;;;;;;;8.20;4.20;;;7.30;99.90;;;7.06;100.00;100491.19;5185365;28;20092;-72
2022/11/28 04:03:22;;;;;;;8.40;3.95;;;7.30;99.90;;;7.09;100.00;100493.91;5185303;28;20046;-70
2022/11/28 04:06:01;;;;;;;10.43;4.97;;;7.30;99.90;;;7.05;100.00;100502.38;5185474;28;20507;-71
2022/11/28 04:08:41;;;;;;;7.97;4.32;;;7.30;99.90;;;7.07;100.00;100490.38;5184952;28;20104;-71
2022/11/28 04:11:17;;;;;;;8.23;4.28;;;7.30;99.90;;;7.08;100.00;100493.03;5185309;28;20041;-70
2022/11/28 04:13:54;;;;;;;7.97;3.80;;;7.30;99.90;;;7.10;100.00;100511.22;5185328;28;20069;-71
2022/11/28 04:16:34;;;;;;;10.45;5.10;;;7.30;99.90;;;7.15;100.00;100534.78;5185078;28;20046;-70
2022/11/28 04:19:14;;;;;;;9.90;4.82;;;7.40;99.90;;;7.21;100.00;100535.03;5184827;28;20121;-70
2022/11/28 04:21:54;;;;;;;11.05;5.68;;;7.40;99.90;;;7.24;100.00;100538.66;5185167;28;20046;-70
2022/11/28 04:24:34;;;;;;;12.07;6.03;;;7.40;99.90;;;7.26;100.00;100533.53;5185060;28;20046;-70
2022/11/28 04:27:12;;;;;;;12.20;6.88;;;7.40;99.90;;;7.25;100.00;100519.69;5185239;28;20049;-70
2022/11/28 04:29:48;;;;;;;9.88;6.22;;;7.40;99.90;;;7.25;100.00;100524.88;5185394;28;20080;-70
2022/11/28 04:32:22;;;;;;;9.55;5.13;;;7.40;99.90;;;7.20;100.00;100526.38;5185431;28;20411;-70
2022/11/28 04:34:59;;;;;;;9.73;4.70;;;7.40;99.90;;;7.14;100.00;100523.50;5185117;28;20048;-70
2022/11/28 04:37:34;;;;;;;13.02;5.03;;;7.40;99.90;;;7.07;100.00;100513.69;5183645;28;20058;-70
2022/11/28 04:40:09;;;;;;;;;;;7.30;99.90;;;7.03;100.00;100519.56;5185288;28;20124;-70
2022/11/28 04:42:47;;;;;;;8.40;4.53;;;7.30;99.90;;;6.99;100.00;100515.06;5185027;28;19925;-70
2022/11/28 04:45:26;;;;;;;10.63;5.55;;;7.30;99.90;;;6.92;100.00;100513.91;5183563;28;20050;-70
2022/11/28 04:47:58;;;;;;;10.05;4.72;;;7.20;99.90;;;6.88;100.00;100500.75;5184858;28;20100;-70
2022/11/28 04:50:38;;;;;;;8.95;4.57;;;7.20;99.90;;;6.86;100.00;100492.03;5184691;28;20041;-70
2022/11/28 04:53:15;;;;;;;8.35;4.32;;;7.20;99.90;;;6.86;100.00;100500.69;5184678;28;20073;-70
2022/11/28 04:55:55;;;;;;;10.82;4.82;;;7.10;99.90;;;6.85;100.00;100492.84;5184620;28;20045;-71
2022/11/28 04:58:33;;;;;;;10.18;5.00;;;7.10;99.90;;;6.82;100.00;100513.41;5184389;28;20050;-71
2022/11/28 05:01:11;;;;;;;9.18;4.70;;;7.10;99.90;;;6.77;100.00;100511.50;5200433;23;20339;-82
2022/11/28 05:03:45;;;;;;;9.85;5.07;;;7.10;99.90;;;6.79;100.00;100511.59;5153658;28;20073;-82
2022/11/28 05:06:26;;;;;;;11.63;6.60;;;7.10;99.90;;;6.79;100.00;100503.81;5142879;28;20462;-82
2022/11/28 05:08:59;;;;;;;13.20;5.60;;;7.10;99.90;;;6.83;100.00;100503.13;5142271;28;20061;-82
2022/11/28 05:11:33;;;;;;;16.73;8.70;;;7.10;99.90;;;6.86;100.00;100516.22;5126714;28;20054;-82
2022/11/28 05:14:05;;;;;;;12.25;6.85;;;7.10;99.90;;;6.85;100.00;100513.56;5142805;28;20426;-82
2022/11/28 05:16:38;;;;;;;11.80;5.07;;;7.10;99.90;;;6.84;100.00;100516.94;5126749;28;20054;-82
2022/11/28 05:19:11;;;;;;;10.13;4.70;;;7.10;99.90;;;6.83;100.00;100510.00;5143653;28;20053;-82
2022/11/28 05:21:44;;;;;;;10.88;5.18;;;7.10;99.90;;;6.80;100.00;100513.34;5141611;28;20046;-82
2022/11/28 05:24:16;;;;;;;11.02;5.65;;;7.10;99.90;;;6.77;100.00;100514.09;5143660;28;20057;-82
2022/11/28 05:26:50;;;;;;;11.75;4.78;;;7.10;99.90;;;6.73;100.00;100509.59;5126772;28;20078;-82
2022/11/28 05:29:23;;;;;;;13.35;5.70;;;7.00;99.90;;;6.76;100.00;100504.53;5142282;28;20053;-82
2022/11/28 05:31:56;;;;;;;13.38;5.75;;;7.10;99.90;;;6.73;100.00;100508.72;5142224;28;20065;-82
2022/11/28 05:34:29;;;;;;;11.70;5.72;;;7.00;99.90;;;6.69;100.00;100512.84;5143678;28;20494;-82
2022/11/28 05:37:03;;;;;;;10.73;5.00;;;7.00;99.90;;;6.73;100.00;100509.59;5143608;28;20059;-82
2022/11/28 05:39:36;;;;;;;12.55;6.78;;;7.00;99.90;;;6.72;100.00;100520.78;5126354;28;20154;-82
2022/11/28 05:42:10;;;;;;;10.50;5.65;;;7.00;99.90;;;6.76;100.00;100516.59;5142485;28;20038;-82
2022/11/28 05:44:42;;;;;;;11.52;5.90;;;7.00;99.90;;;6.78;100.00;100518.47;5126710;28;20422;-82
2022/11/28 05:47:15;;;;;;;12.05;5.90;;;7.00;99.90;;;6.75;100.00;100523.50;5142043;28;20062;-82
2022/11/28 05:49:48;;;;;;;10.43;5.35;;;7.00;99.90;;;6.77;100.00;100526.16;5126622;28;20101;-82
2022/11/28 05:52:20;;;;;;;13.00;5.90;;;7.00;99.90;;;6.75;100.00;100520.91;5142734;28;20536;-82
2022/11/28 05:54:52;;;;;;;10.35;5.65;;;7.00;99.90;;;6.78;100.00;100513.28;5126240;28;20427;-82
2022/11/28 05:57:28;;;;;;;11.00;4.97;;;7.10;99.90;;;6.78;100.00;100513.28;5142303;28;20054;-82
2022/11/28 06:00:01;;;;;;;10.55;5.07;;;7.10;99.90;;;6.79;100.00;100525.44;5142185;28;20141;-82
2022/11/28 06:02:43;;;;;;;10.45;5.00;;;7.10;99.90;;;6.82;100.00;100523.78;5143571;28;20047;-82
2022/11/28 06:05:17;;;;;;;9.45;4.97;;;7.10;99.90;;;6.83;100.00;100525.53;5142492;28;20067;-82
2022/11/28 06:07:50;;;;;;;10.85;5.65;;;7.10;99.90;;;6.82;100.00;100513.41;5141966;28;20047;-82
2022/11/28 06:10:23;;;;;;;9.85;4.93;;;7.00;99.90;;;6.80;100.00;100522.00;5143495;28;20038;-82
2022/11/28 06:12:57;;;;;;;10.13;5.25;;;7.10;99.90;;;6.81;100.00;100520.31;5110399;28;20101;-82
2022/11/28 06:15:31;;;;;;;8.40;4.97;;;7.10;99.90;;;6.84;100.00;100514.38;5126316;28;20090;-82
2022/11/28 06:18:04;;;;;;;9.80;4.60;;;7.00;99.90;;;6.78;100.00;100513.28;5142002;28;20046;-82
2022/11/28 06:20:36;;;;;;;10.32;5.13;;;7.10;99.90;;;6.79;100.00;100520.25;5143531;28;20043;-82
2022/11/28 06:23:09;;;;;;;9.60;5.28;;;7.10;99.90;;;6.76;100.00;100509.72;5126320;28;20047;-82
2022/11/28 06:25:43;;;;;;;10.68;4.53;;;7.00;99.90;;;6.76;100.00;100507.13;5126205;28;20515;-82
2022/11/28 06:28:17;;;;;;;10.57;5.30;;;7.00;99.90;;;6.76;100.00;100514.91;5110487;28;20058;-82
2022/11/28 06:30:51;;;;;;;10.05;4.65;;;7.10;99.90;;;6.76;100.00;100508.84;5141827;28;20517;-82
2022/11/28 06:33:23;;;;;;;11.18;5.32;;;7.00;99.90;;;6.68;100.00;100500.72;5145869;28;20039;-82
2022/11/28 06:36:01;;;;;;;10.63;5.07;;;7.00;99.90;;;6.65;100.00;100507.47;5145826;28;20442;-82
2022/11/28 06:38:34;;;;;;;11.60;5.57;;;7.00;99.90;;;6.58;100.00;100503.69;5146590;28;20057;-82
2022/11/28 06:41:10;;;;;;;10.00;5.38;;;6.90;99.90;;;6.53;100.00;100498.31;5145424;28;20051;-82
2022/11/28 06:43:44;;;;;;;10.82;6.05;;;6.90;99.90;;;6.50;100.00;100503.34;5147080;28;20055;-82
2022/11/28 06:46:21;;;;;;;11.07;5.88;;;6.90;99.90;;;6.47;100.00;100497.16;5146636;28;20411;-81
2022/11/28 06:48:54;;;;;;;13.07;6.03;;;6.80;99.90;;;6.43;100.00;100492.66;5146967;28;20047;-82
2022/11/28 06:51:26;;;;;;;11.85;5.60;;;6.80;99.90;;;6.38;100.00;100489.84;5146732;28;20039;-82
2022/11/28 06:53:58;;;;;;;11.60;6.53;;;6.80;99.90;;;6.34;100.00;100497.41;5146947;28;20542;-81
2022/11/28 06:56:31;;;;;;;12.80;6.90;;;6.70;99.90;;;6.30;100.00;100487.72;5145753;28;20434;-81
2022/11/28 06:59:05;;;;;;;11.55;6.38;;;6.70;99.90;;;6.28;100.00;100491.94;5113271;28;20134;-82
2022/11/28 07:01:38;;;;;;;14.88;6.63;;;6.60;99.90;;;6.27;100.00;100485.00;5146373;28;20510;-82
2022/11/28 07:04:10;;;;;;;15.00;6.90;;;6.60;99.90;;;6.29;100.00;100493.72;5129153;28;20061;-84
2022/11/28 07:06:43;;;;;;;11.70;6.20;;;6.70;99.90;;;6.31;100.00;100486.88;5145052;28;20054;-84
2022/11/28 07:09:16;;;;;;;14.77;7.03;;;6.70;99.90;;;6.35;100.00;100502.66;5129472;28;20054;-85
2022/11/28 07:11:48;;;;;;;10.00;5.55;;;6.70;99.90;;;6.38;100.00;100499.31;5129451;28;20049;-85
2022/11/28 07:14:22;;;;;;;14.38;5.72;;;6.80;99.90;;;6.42;100.00;100498.66;5146751;28;20062;-85
2022/11/28 07:16:56;;;;;;;14.48;6.68;;;6.70;99.90;;;6.42;100.00;100489.16;5129451;28;20061;-80
2022/11/28 07:19:29;;;;;;;12.88;5.97;;;6.70;99.90;;;6.49;100.00;100498.09;5128794;28;20058;-78
2022/11/28 07:22:01;;;;;;;13.25;6.30;;;6.80;99.90;;;6.52;100.00;100495.69;5144187;28;20050;-78
2022/11/28 07:24:35;;;;;;;11.05;6.22;;;6.80;99.90;;;6.54;100.00;100512.16;5128338;28;20051;-78
2022/11/28 07:27:07;;;;;;;12.60;6.43;;;6.80;99.90;;;6.55;100.00;100507.88;5128830;28;20055;-79
2022/11/28 07:29:41;;;;;;;11.43;5.13;;;6.90;99.90;;;6.54;100.00;100514.75;5149304;28;20046;-79
2022/11/28 07:32:13;;;;;;;13.57;6.53;;;6.90;99.90;;;6.58;100.00;100519.22;5128786;28;20458;-78
2022/11/28 07:34:48;;;;;;;12.52;6.20;;;6.90;99.90;;;6.60;100.00;100507.25;5160733;28;20039;-79
2022/11/28 07:37:20;;;;;;;10.35;6.15;;;6.90;99.90;;;6.63;100.00;100522.06;5144293;28;20054;-78
2022/11/28 07:39:53;;;;;;;13.23;6.47;;;6.90;99.90;;;6.65;100.00;100515.22;5154397;28;20066;-79
2022/11/28 07:42:25;;;;;;;11.15;6.35;;;6.90;99.90;;;6.64;100.00;100516.03;5164325;28;20042;-79
2022/11/28 07:45:12;;;;;;;11.82;5.90;;;6.90;99.90;;;6.59;100.00;100515.84;5164410;28;20074;-78
2022/11/28 07:47:44;;;;;;;14.48;6.80;;;6.90;99.90;;;6.62;100.00;100520.28;5163990;28;20054;-79
2022/11/28 07:50:17;;;;;;;11.60;6.18;;;6.90;99.90;;;6.60;100.00;100516.75;5165393;28;20487;-79
2022/11/28 07:52:50;;;;;;;12.07;6.72;;;6.90;99.90;;;6.63;100.00;100522.94;5165473;28;20498;-78
2022/11/28 07:55:22;;;;;;;12.60;5.57;;;6.90;99.90;;;6.59;100.00;100515.84;5164104;28;20624;-78
2022/11/28 07:57:54;;;;;;;11.68;6.30;;;6.90;99.90;;;6.59;100.00;100521.03;5164859;28;20395;-79
2022/11/28 08:00:28;;;;;;;15.63;6.75;;;6.90;99.90;;;6.60;100.00;100522.81;5147740;28;20077;-78
2022/11/28 08:03:01;;;;;;;12.38;5.80;;;6.90;99.90;;;6.63;100.00;100517.75;5163828;28;20050;-78
2022/11/28 08:05:33;;;;;;;10.48;5.20;;;6.90;99.90;;;6.65;100.00;100526.50;5147997;28;20514;-78
2022/11/28 08:08:06;;;;;;;11.35;5.25;;;6.90;99.90;;;6.68;100.00;100523.16;5147533;28;20050;-78
2022/11/28 08:10:39;;;;;;;10.18;5.25;;;7.00;99.90;;;6.74;100.00;100526.03;5163522;28;20050;-78
2022/11/28 08:13:12;;;;;;;11.23;5.68;;;7.00;99.90;;;6.69;100.00;100518.03;5147791;28;20058;-78
2022/11/28 08:15:46;;;;;;;17.83;6.10;;;7.00;99.90;;;6.71;100.00;100525.88;5163745;28;20050;-78
2022/11/28 08:18:19;;;;;;;10.65;4.97;;;7.00;99.90;;;6.76;100.00;100519.19;5163456;28;20042;-79
2022/11/28 08:20:52;;;;;;;12.63;6.55;;;7.00;99.90;;;6.79;100.00;100525.44;5163440;28;20418;-78
2022/11/28 08:23:26;;;;;;;13.15;6.85;;;7.00;99.90;;;6.80;100.00;100518.53;5163726;28;20466;-78
2022/11/28 08:26:00;;;;;;;11.02;5.45;;;7.00;99.90;;;6.76;100.00;100520.09;5151887;28;20049;-78
2022/11/28 08:28:34;;;;;;;13.25;6.45;;;7.00;99.90;;;6.74;100.00;100516.56;5163217;28;20459;-78
2022/11/28 08:31:12;;;;;;;11.00;5.35;;;7.00;99.90;;;6.74;100.00;100521.72;5147514;28;20755;-78
2022/11/28 08:33:47;;;;;;;13.93;5.95;;;7.00;99.90;;;6.77;100.00;100523.56;5163539;28;20697;-79
2022/11/28 08:36:21;;;;;;;12.43;5.68;;;7.00;99.90;;;6.80;100.00;100521.13;5163317;28;20051;-78
2022/11/28 08:38:53;;;;;;;10.23;6.00;;;7.10;99.90;;;6.79;100.00;100525.44;5150393;28;20426;-78
2022/11/28 08:41:26;;;;;;;11.40;4.93;;;7.10;99.90;;;6.84;100.00;100524.72;5144311;28;20518;-78
2022/11/28 08:43:59;;;;;;;12.63;5.63;;;7.10;99.90;;;6.80;100.00;100522.00;5143079;28;20050;-78
2022/11/28 08:46:35;;;;;;;12.73;5.60;;;7.10;99.90;;;6.82;100.00;100514.31;5143060;28;20055;-79
2022/11/28 08:49:08;;;;;;;11.27;5.43;;;7.10;99.90;;;7.00;100.00;100519.44;5143834;28;20046;-79
2022/11/28 08:51:44;;;;;;;10.10;4.97;;;7.30;99.90;;;7.10;100.00;100520.72;5142822;28;20122;-79
2022/11/28 08:54:16;;;;;;;10.95;5.25;;;7.30;99.90;;;7.14;100.00;100520.94;5156670;28;20051;-78
2022/11/28 08:56:49;;;;;;;9.63;5.38;;;7.40;99.90;;;7.10;100.00;100512.94;5145606;28;20063;-78
2022/11/28 08:59:22;;;;;;;9.93;5.18;;;7.40;99.90;;;7.07;100.00;100513.69;5106631;28;20057;-78
2022/11/28 09:01:56;;;;;;;10.65;5.25;;;7.40;99.90;;;7.07;100.00;100516.28;5157565;28;20047;-78
2022/11/28 09:04:29;;;;;;;10.70;5.20;;;7.40;99.90;;;7.04;100.00;100516.13;5148402;28;20081;-77
2022/11/28 09:07:02;;;;;;;10.77;5.20;;;7.30;99.90;;;7.02;100.00;100512.59;5158510;28;20648;-76
2022/11/28 09:09:34;;;;;;;10.23;5.82;;;7.30;99.90;;;6.99;100.00;100515.06;5151354;28;20464;-76
2022/11/28 09:12:09;;;;;;;11.80;5.60;;;7.30;99.90;;;6.94;100.00;100514.84;5144882;28;20537;-77
2022/11/28 09:14:41;;;;;;;12.55;5.57;;;7.30;99.90;;;6.99;100.00;100522.84;5162810;28;20046;-77
2022/11/28 09:17:15;;;;;;;9.65;5.07;;;7.30;99.90;;;7.04;100.00;100521.31;5146627;28;20589;-78
2022/11/28 09:19:48;;;;;;;10.63;5.15;;;7.30;99.90;;;7.07;100.00;100522.34;5162699;28;20129;-78
2022/11/28 09:22:21;;;;;;;9.57;4.70;;;7.30;99.90;;;7.10;100.00;100520.72;5146544;28;20445;-78
2022/11/28 09:24:53;;;;;;;8.57;4.68;;;7.30;99.90;;;7.12;100.00;100532.94;5146599;28;20135;-77
2022/11/28 09:27:27;;;;;;;10.77;5.18;;;7.30;99.90;;;7.09;100.00;100530.19;5162578;28;20078;-78
2022/11/28 09:30:00;;;;;;;;;;;7.30;99.90;;;7.13;100.00;100537.31;5163026;28;20039;-79
2022/11/28 09:32:36;;;;;;;10.93;5.75;;;7.40;99.90;;;7.11;100.00;100530.25;5162439;28;20401;-79
2022/11/28 09:35:09;;;;;;;11.05;5.55;;;7.30;99.90;;;7.11;100.00;100532.84;5162714;28;20050;-79
2022/11/28 09:37:42;;;;;;;11.77;5.07;;;7.40;99.90;;;7.14;100.00;100538.19;5130187;28;20810;-79
2022/11/28 09:40:18;;;;;;;11.70;5.78;;;7.40;99.90;;;7.13;100.00;100542.47;5162150;28;20042;-79
2022/11/28 09:42:50;;;;;;;10.38;5.28;;;7.40;99.90;;;7.19;100.00;100542.75;5146231;28;20053;-79
2022/11/28 09:45:25;;;;;;;9.30;4.70;;;7.40;99.90;;;7.23;100.00;100549.81;5146204;28;20060;-79
2022/11/28 09:48:07;;;;;;;10.27;5.10;;;7.40;99.90;;;7.22;100.00;100536.81;5162162;28;20054;-79
2022/11/28 09:50:41;;;;;;;10.85;4.78;;;7.40;99.90;;;7.23;100.00;100530.81;5157998;28;20071;-79
2022/11/28 09:53:22;;;;;;;13.40;6.35;;;7.40;99.90;;;7.21;100.00;100538.53;5154921;28;20495;-79
2022/11/28 09:56:00;;;;;;;14.65;6.13;;;7.40;99.90;;;7.26;100.00;100539.63;5162234;28;20046;-80
2022/11/28 09:58:39;;;;;;;12.65;5.57;;;7.40;99.90;;;7.23;100.00;100534.28;5155323;28;20607;-78
2022/11/28 10:01:21;;;;;;;12.20;5.78;;;7.40;99.90;;;7.24;100.00;100524.81;5162270;28;20652;-79
2022/11/28 10:04:03;;;;;;;8.95;5.20;;;7.40;99.90;;;7.25;100.00;100532.66;5146511;28;20511;-79
2022/11/28 10:06:46;;;;;;;10.40;4.60;;;7.50;99.90;;;7.29;100.00;100521.59;5163474;28;20047;-80
2022/11/28 10:09:33;;;;;;;12.90;6.40;;;7.50;99.90;;;7.30;100.00;100530.25;5167285;28;20046;-80
2022/11/28 10:12:26;;;;;;;14.02;6.20;;;7.50;99.90;;;7.34;100.00;100527.88;5153203;28;20059;-78
2022/11/28 10:15:20;;;;;;;12.30;6.38;;;7.50;99.90;;;7.37;100.00;100532.31;5155825;28;20553;-78
2022/11/28 10:18:14;;;;;;;11.80;7.30;;;7.60;99.90;;;7.38;100.00;100538.38;5145928;28;20528;-79
2022/11/28 10:20:53;;;;;;;10.90;5.78;;;7.60;99.90;;;7.34;100.00;100535.63;5149867;28;20137;-79
2022/11/28 10:23:33;;;;;;;10.75;5.78;;;7.60;99.90;;;7.37;100.00;100529.72;5149832;28;20047;-79
2022/11/28 10:26:11;;;;;;;10.82;5.45;;;7.60;99.90;;;7.39;100.00;100525.47;5165798;28;20050;-79
2022/11/28 10:28:48;;;;;;;12.40;5.28;;;7.60;99.90;;;7.40;100.00;100529.84;5165669;28;20057;-78
2022/11/28 10:31:30;;;;;;;10.27;4.75;;;7.60;99.90;;;7.46;100.00;100537.00;5165787;28;20046;-79
2022/11/28 10:34:11;;;;;;;11.18;5.20;;;7.60;99.90;;;7.48;100.00;100535.34;5166276;28;20050;-78
2022/11/28 10:36:54;;;;;;;15.35;5.50;;;7.60;99.90;;;7.47;100.00;100525.81;5167107;28;20038;-79
2022/11/28 10:39:27;;;;;;;10.70;4.63;;;7.70;99.90;;;7.49;100.00;100531.94;5165217;28;20046;-79
2022/11/28 10:42:12;;;;;;;9.25;4.50;;;7.70;99.90;;;7.53;100.00;100528.66;5150156;28;20046;-78
2022/11/28 10:45:02;;;;;;;8.52;4.45;;;7.70;99.90;;;7.58;100.00;100534.94;5150476;28;20430;-78
2022/11/28 10:47:54;;;;;;;11.30;4.88;;;7.80;99.90;;;7.62;100.00;100529.03;5149089;28;20078;-78
2022/11/28 10:50:39;;;;;;;8.45;3.78;;;7.80;99.90;;;7.66;100.00;100530.94;5149555;28;20070;-78
2022/11/28 10:53:30;;;;;;;9.10;4.28;;;7.80;99.90;;;7.71;100.00;100529.44;5149476;28;20073;-78
2022/11/28 10:56:14;;;;;;;9.70;4.82;;;7.90;99.90;;;7.70;100.00;100525.09;5153042;28;20042;-79